Time,TemperatureF,DewpointF,PressureIn,WindDirection,WindDirectionDegrees,WindSpeedMPH,WindSpeedGustMPH,Humidity,HourlyPrecipIn,Conditions,Clouds,dailyrainin,SoftwareType,DateUTC
2014-09-20 00:05:00,58.6,58.3,30.29,ESE,112,8.9,-999.0,99,-99.99,,,0.00,Acu-Link.com,2014-09-20 04:05:00,
2014-09-20 00:20:00,58.6,58.3,30.29,East,90,13.0,-999.0,99,-99.99,,,0.00,Acu-Link.com,2014-09-20 04:20:00,
2014-09-20 00:36:00,58.8,58.5,30.29,ESE,112,4.2,-999.0,99,-99.99,,,0.00,Acu-Link.com,2014-09-20 04:36:00,
2014-09-20 00:51:00,58.8,58.5,30.29,ESE,112,4.2,-999.0,99,-99.99,,,0.00,Acu-Link.com,2014-09-20 04:51:00,
2014-09-20 01:06:00,59.0,58.7,30.29,ESE,112,6.8,-999.0,99,-99.99,,,0.00,Acu-Link.com,2014-09-20 05:06:00,
2014-09-20 01:22:00,59.0,58.7,30.28,NNE,22,6.3,-999.0,99,-99.99,,,0.00,Acu-Link.com,2014-09-20 05:22:00,
2014-09-20 01:37:00,59.0,58.7,30.28,NNE,22,7.3,-999.0,99,-99.99,,,0.00,Acu-Link.com,2014-09-20 05:37:00,
2014-09-20 01:52:00,59.0,58.7,30.29,ESE,112,6.3,-999.0,99,-99.99,,,0.00,Acu-Link.com,2014-09-20 05:52:00,
2014-09-20 02:07:00,59.2,58.9,30.29,East,90,5.8,-999.0,99,-99.99,,,0.00,Acu-Link.com,2014-09-20 06:07:00,
2014-09-20 02:23:00,59.2,58.9,30.29,East,90,5.3,-999.0,99,-99.99,,,0.00,Acu-Link.com,2014-09-20 06:23:00,
2014-09-20 02:38:00,59.0,58.7,30.28,ESE,112,2.2,-999.0,99,-99.99,,,0.00,Acu-Link.com,2014-09-20 06:38:00,
2014-09-20 02:53:00,58.8,58.5,30.28,East,90,6.3,-999.0,99,-99.99,,,0.00,Acu-Link.com,2014-09-20 06:53:00,
2014-09-20 03:08:00,58.6,58.3,30.28,East,90,5.3,-999.0,99,-99.99,,,0.00,Acu-Link.com,2014-09-20 07:08:00,
2014-09-20 03:23:00,58.5,58.2,30.27,East,90,1.7,-999.0,99,-99.99,,,0.00,Acu-Link.com,2014-09-20 07:23:00,
2014-09-20 03:39:00,58.5,58.2,30.27,ESE,112,5.8,-999.0,99,-99.99,,,0.00,Acu-Link.com,2014-09-20 07:39:00,
2014-09-20 03:54:00,58.3,58.0,30.26,ENE,67,6.3,-999.0,99,-99.99,,,0.00,Acu-Link.com,2014-09-20 07:54:00,
2014-09-20 04:09:00,58.3,58.0,30.26,East,90,6.8,-999.0,99,-99.99,,,0.00,Acu-Link.com,2014-09-20 08:09:00,
2014-09-20 04:24:00,58.1,57.8,30.27,SE,135,4.7,-999.0,99,-99.99,,,0.00,Acu-Link.com,2014-09-20 08:24:00,
2014-09-20 04:39:00,58.1,57.8,30.27,SE,135,1.1,-999.0,99,-99.99,,,0.00,Acu-Link.com,2014-09-20 08:39:00,
2014-09-20 04:55:00,58.1,57.8,30.27,East,90,4.2,-999.0,99,-99.99,,,0.00,Acu-Link.com,2014-09-20 08:55:00,
2014-09-20 05:10:00,58.1,57.8,30.27,SE,135,5.3,-999.0,99,-99.99,,,0.00,Acu-Link.com,2014-09-20 09:10:00,
2014-09-20 05:25:00,57.7,57.4,30.27,East,90,4.2,-999.0,99,-99.99,,,0.00,Acu-Link.com,2014-09-20 09:25:00,
2014-09-20 05:40:00,57.4,57.1,30.26,East,90,5.8,-999.0,99,-99.99,,,0.00,Acu-Link.com,2014-09-20 09:40:00,
2014-09-20 05:55:00,57.0,56.7,30.27,ESE,112,3.2,-999.0,99,-99.99,,,0.00,Acu-Link.com,2014-09-20 09:55:00,
2014-09-20 06:11:00,56.5,56.2,30.26,NE,45,1.1,-999.0,99,-99.99,,,0.00,Acu-Link.com,2014-09-20 10:11:00,
2014-09-20 06:26:00,55.9,55.6,30.27,SSW,202,0.0,-999.0,99,-99.99,,,0.00,Acu-Link.com,2014-09-20 10:26:00,
2014-09-20 06:42:00,55.2,54.9,30.27,NNW,337,0.0,-999.0,99,-99.99,,,0.00,Acu-Link.com,2014-09-20 10:42:00,
2014-09-20 06:57:00,54.7,54.4,30.27,ENE,67,0.0,-999.0,99,-99.99,,,0.00,Acu-Link.com,2014-09-20 10:57:00,
2014-09-20 07:12:00,54.3,54.0,30.27,NNE,22,0.0,-999.0,99,-99.99,,,0.00,Acu-Link.com,2014-09-20 11:12:00,
2014-09-20 07:27:00,54.0,53.7,30.28,West,270,0.0,-999.0,99,-99.99,,,0.00,Acu-Link.com,2014-09-20 11:27:00,
2014-09-20 07:43:00,54.1,53.8,30.28,WNW,292,0.0,-999.0,99,-99.99,,,0.00,Acu-Link.com,2014-09-20 11:43:00,
2014-09-20 07:58:00,55.2,54.9,30.28,ESE,112,0.0,-999.0,99,-99.99,,,0.00,Acu-Link.com,2014-09-20 11:58:00,
2014-09-20 08:13:00,55.4,55.1,30.28,NE,45,0.0,-999.0,99,-99.99,,,0.00,Acu-Link.com,2014-09-20 12:13:00,
2014-09-20 08:29:00,59.0,58.7,30.28,NE,45,2.2,-999.0,99,-99.99,,,0.00,Acu-Link.com,2014-09-20 12:29:00,
2014-09-20 08:44:00,62.2,61.3,30.28,ESE,112,3.7,-999.0,97,-99.99,,,0.00,Acu-Link.com,2014-09-20 12:44:00,
2014-09-20 08:59:00,64.8,61.8,30.28,NE,45,1.1,-999.0,90,-99.99,,,0.00,Acu-Link.com,2014-09-20 12:59:00,
2014-09-20 09:15:00,66.9,60.9,30.27,NE,45,0.0,-999.0,81,-99.99,,,0.00,Acu-Link.com,2014-09-20 13:15:00,
2014-09-20 09:30:00,62.6,59.0,30.28,NNW,337,2.7,-999.0,88,-99.99,,,0.00,Acu-Link.com,2014-09-20 13:30:00,
2014-09-20 09:45:00,65.1,60.8,30.28,East,90,1.1,-999.0,86,-99.99,,,0.00,Acu-Link.com,2014-09-20 13:45:00,
2014-09-20 10:01:00,65.5,59.2,30.28,ESE,112,1.1,-999.0,80,-99.99,,,0.00,Acu-Link.com,2014-09-20 14:01:00,
2014-09-20 10:16:00,66.4,60.0,30.27,ESE,112,2.7,-999.0,80,-99.99,,,0.00,Acu-Link.com,2014-09-20 14:16:00,
2014-09-20 10:31:00,67.3,58.3,30.27,SSW,202,0.0,-999.0,73,-99.99,,,0.00,Acu-Link.com,2014-09-20 14:31:00,
2014-09-20 10:46:00,68.4,58.6,30.27,SSE,157,3.2,-999.0,71,-99.99,,,0.00,Acu-Link.com,2014-09-20 14:46:00,
2014-09-20 11:02:00,68.7,58.9,30.26,ESE,112,3.2,-999.0,71,-99.99,,,0.00,Acu-Link.com,2014-09-20 15:02:00,
2014-09-20 11:17:00,69.4,58.0,30.26,ESE,112,5.3,-999.0,67,-99.99,,,0.00,Acu-Link.com,2014-09-20 15:17:00,
2014-09-20 11:32:00,70.2,54.2,30.26,East,90,1.7,-999.0,57,-99.99,,,0.00,Acu-Link.com,2014-09-20 15:32:00,
2014-09-20 11:47:00,70.3,52.3,30.26,SE,135,6.3,-999.0,53,-99.99,,,0.00,Acu-Link.com,2014-09-20 15:47:00,
2014-09-20 12:02:00,70.3,52.9,30.25,ENE,67,5.3,-999.0,54,-99.99,,,0.00,Acu-Link.com,2014-09-20 16:02:00,
2014-09-20 12:18:00,70.9,53.4,30.25,South,180,3.2,-999.0,54,-99.99,,,0.00,Acu-Link.com,2014-09-20 16:18:00,
2014-09-20 12:33:00,70.7,52.7,30.24,SSE,157,2.7,-999.0,53,-99.99,,,0.00,Acu-Link.com,2014-09-20 16:33:00,
2014-09-20 12:48:00,70.5,52.0,30.23,SSE,157,6.8,-999.0,52,-99.99,,,0.00,Acu-Link.com,2014-09-20 16:48:00,
2014-09-20 13:03:00,71.2,53.7,30.23,East,90,6.3,-999.0,54,-99.99,,,0.00,Acu-Link.com,2014-09-20 17:03:00,
2014-09-20 13:18:00,70.9,52.9,30.22,NE,45,2.7,-999.0,53,-99.99,,,0.00,Acu-Link.com,2014-09-20 17:18:00,
2014-09-20 13:34:00,71.1,55.6,30.21,SE,135,4.7,-999.0,58,-99.99,,,0.00,Acu-Link.com,2014-09-20 17:34:00,
2014-09-20 13:49:00,72.1,55.5,30.21,ESE,112,5.8,-999.0,56,-99.99,,,0.00,Acu-Link.com,2014-09-20 17:49:00,
2014-09-20 14:04:00,72.0,57.3,30.19,ESE,112,2.7,-999.0,60,-99.99,,,0.00,Acu-Link.com,2014-09-20 18:04:00,
2014-09-20 14:20:00,72.1,56.5,30.18,ESE,112,6.8,-999.0,58,-99.99,,,0.00,Acu-Link.com,2014-09-20 18:20:00,
2014-09-20 14:35:00,72.3,58.1,30.17,ESE,112,5.8,-999.0,61,-99.99,,,0.00,Acu-Link.com,2014-09-20 18:35:00,
2014-09-20 14:50:00,72.1,59.2,30.17,NNE,22,1.1,-999.0,64,-99.99,,,0.00,Acu-Link.com,2014-09-20 18:50:00,
2014-09-20 15:06:00,71.8,58.5,30.16,ESE,112,3.2,-999.0,63,-99.99,,,0.00,Acu-Link.com,2014-09-20 19:06:00,
2014-09-20 15:21:00,72.3,58.1,30.16,South,180,4.2,-999.0,61,-99.99,,,0.00,Acu-Link.com,2014-09-20 19:21:00,
2014-09-20 15:36:00,72.1,57.4,30.15,ESE,112,3.2,-999.0,60,-99.99,,,0.00,Acu-Link.com,2014-09-20 19:36:00,
2014-09-20 15:51:00,73.2,59.4,30.14,ESE,112,4.7,-999.0,62,-99.99,,,0.00,Acu-Link.com,2014-09-20 19:51:00,
2014-09-20 16:06:00,73.2,58.0,30.14,ESE,112,6.3,-999.0,59,-99.99,,,0.00,Acu-Link.com,2014-09-20 20:06:00,
2014-09-20 16:21:00,73.0,57.8,30.13,South,180,4.2,-999.0,59,-99.99,,,0.00,Acu-Link.com,2014-09-20 20:21:00,
2014-09-20 16:37:00,71.4,58.6,30.13,NE,45,1.1,-999.0,64,-99.99,,,0.00,Acu-Link.com,2014-09-20 20:37:00,
2014-09-20 16:52:00,72.7,58.9,30.12,ENE,67,2.7,-999.0,62,-99.99,,,0.00,Acu-Link.com,2014-09-20 20:52:00,
2014-09-20 17:08:00,75.7,60.3,30.11,ESE,112,7.3,-999.0,59,-99.99,,,0.00,Acu-Link.com,2014-09-20 21:08:00,
2014-09-20 17:23:00,72.3,59.0,30.12,East,90,5.3,-999.0,63,-99.99,,,0.00,Acu-Link.com,2014-09-20 21:23:00,
2014-09-20 17:38:00,71.2,58.4,30.11,East,90,4.2,-999.0,64,-99.99,,,0.00,Acu-Link.com,2014-09-20 21:38:00,
2014-09-20 17:53:00,73.4,59.1,30.12,ENE,67,2.2,-999.0,61,-99.99,,,0.00,Acu-Link.com,2014-09-20 21:53:00,
2014-09-20 18:08:00,75.9,59.6,30.11,ESE,112,2.2,-999.0,57,-99.99,,,0.00,Acu-Link.com,2014-09-20 22:08:00,
2014-09-20 18:24:00,72.5,59.6,30.11,East,90,3.2,-999.0,64,-99.99,,,0.00,Acu-Link.com,2014-09-20 22:24:00,
2014-09-20 18:39:00,72.0,59.1,30.11,ESE,112,2.2,-999.0,64,-99.99,,,0.00,Acu-Link.com,2014-09-20 22:39:00,
2014-09-20 18:54:00,70.2,59.1,30.11,NE,45,0.0,-999.0,68,-99.99,,,0.00,Acu-Link.com,2014-09-20 22:54:00,
2014-09-20 19:10:00,68.7,58.9,30.10,ENE,67,1.7,-999.0,71,-99.99,,,0.00,Acu-Link.com,2014-09-20 23:10:00,
2014-09-20 19:25:00,66.4,58.6,30.11,NE,45,0.0,-999.0,76,-99.99,,,0.00,Acu-Link.com,2014-09-20 23:25:00,
2014-09-20 19:40:00,62.6,57.4,30.11,ENE,67,2.2,-999.0,83,-99.99,,,0.00,Acu-Link.com,2014-09-20 23:40:00,
2014-09-20 19:55:00,61.2,56.7,30.11,ENE,67,2.2,-999.0,85,-99.99,,,0.00,Acu-Link.com,2014-09-20 23:55:00,
2014-09-20 20:11:00,61.2,56.7,30.11,NE,45,2.2,-999.0,85,-99.99,,,0.00,Acu-Link.com,2014-09-21 00:11:00,
2014-09-20 20:26:00,60.6,56.1,30.12,NNE,22,2.2,-999.0,85,-99.99,,,0.00,Acu-Link.com,2014-09-21 00:26:00,
2014-09-20 20:41:00,59.9,55.7,30.12,NE,45,0.0,-999.0,86,-99.99,,,0.00,Acu-Link.com,2014-09-21 00:41:00,
2014-09-20 20:57:00,58.5,55.3,30.12,NE,45,0.0,-999.0,89,-99.99,,,0.00,Acu-Link.com,2014-09-21 00:57:00,